Time;durP1;ratioP1;P1;durP2;ratioP2;P2;SDS_P1;SDS_P2;PMS_P1;PMS_P2;Temp;Humidity;BMP_temperature;BMP_pressure;BME280_temperature;BME280_humidity;BME280_pressure;Samples;Min_cycle;Max_cycle;Signal;HPM_P1;HPM_P2
2022/09/06 00:01:57;;;;;;;4.00;3.03;;;20.30;99.90;;;;;;4956321;28;20044;-84
2022/09/06 00:04:23;;;;;;;5.97;2.70;;;20.20;99.90;;;;;;4955998;29;20043;-83
2022/09/06 00:06:48;;;;;;;6.15;3.13;;;20.20;99.90;;;;;;4955648;29;20521;-83
2022/09/06 00:09:14;;;;;;;4.35;3.25;;;20.10;99.90;;;;;;4954418;28;20058;-83
2022/09/06 00:11:40;;;;;;;3.97;2.97;;;20.10;99.90;;;;;;4954911;29;20051;-85
2022/09/06 00:14:06;;;;;;;8.60;3.08;;;20.10;99.90;;;;;;4954726;28;20631;-84
2022/09/06 00:16:31;;;;;;;6.82;2.88;;;20.00;99.90;;;;;;4956611;29;20043;-84
2022/09/06 00:18:57;;;;;;;10.35;3.00;;;19.90;99.90;;;;;;4954036;28;20098;-83
2022/09/06 00:21:29;;;;;;;7.70;3.30;;;19.90;99.90;;;;;;4955316;28;20070;-83
2022/09/06 00:23:55;;;;;;;3.50;3.00;;;19.80;99.90;;;;;;4955749;28;20065;-83
2022/09/06 00:26:22;;;;;;;5.20;3.42;;;19.80;99.90;;;;;;4955728;29;20119;-84
2022/09/06 00:28:48;;;;;;;7.57;3.38;;;19.70;99.90;;;;;;4954166;28;20043;-84
2022/09/06 00:31:19;;;;;;;7.13;3.08;;;19.70;99.90;;;;;;4956493;29;20045;-83
2022/09/06 00:33:45;;;;;;;5.65;2.97;;;19.70;99.90;;;;;;4955400;28;20058;-83
2022/09/06 00:36:12;;;;;;;6.70;3.28;;;19.60;99.90;;;;;;4953612;28;20090;-83
2022/09/06 00:38:38;;;;;;;17.48;3.15;;;19.60;99.90;;;;;;4953772;28;20503;-83
2022/09/06 00:41:06;;;;;;;6.25;3.28;;;19.60;99.90;;;;;;4953681;29;20039;-84
2022/09/06 00:43:31;;;;;;;5.82;3.90;;;19.50;99.90;;;;;;4956137;29;20055;-84
2022/09/06 00:45:58;;;;;;;4.63;2.78;;;19.50;99.90;;;;;;4938962;29;20376;-84
2022/09/06 00:48:24;;;;;;;11.07;3.72;;;19.40;99.90;;;;;;4954529;28;20118;-84
2022/09/06 00:50:56;;;;;;;4.68;3.20;;;19.40;99.90;;;;;;4954829;29;20050;-84
2022/09/06 00:53:22;;;;;;;4.35;2.72;;;19.40;99.90;;;;;;4955247;29;20122;-84
2022/09/06 00:55:48;;;;;;;5.63;3.13;;;19.40;99.90;;;;;;4955587;28;20047;-84
2022/09/06 00:58:14;;;;;;;6.75;3.35;;;19.30;99.90;;;;;;4954662;29;20058;-85
2022/09/06 01:00:41;;;;;;;6.70;3.60;;;19.30;99.90;;;;;;4937538;29;20058;-84
2022/09/06 01:03:08;;;;;;;6.90;3.65;;;19.20;99.90;;;;;;4954723;29;20506;-84
2022/09/06 01:05:37;;;;;;;4.10;3.00;;;19.20;99.90;;;;;;4953936;28;20059;-84
2022/09/06 01:08:42;;;;;;;6.43;3.42;;;19.20;99.90;;;;;;4955210;28;20054;-85
2022/09/06 01:11:28;;;;;;;5.93;3.88;;;19.20;99.90;;;;;;4916304;28;20055;-84
2022/09/06 01:14:18;;;;;;;5.43;3.60;;;19.20;99.90;;;;;;4952897;28;20047;-84
2022/09/06 01:17:17;;;;;;;3.78;3.28;;;19.10;99.90;;;;;;4936508;29;20047;-84
2022/09/06 06:24:35;;;;;;;10.55;7.65;;;17.30;99.90;;;;;;5079501;23;20623;-85
2022/09/06 06:27:01;;;;;;;14.15;7.55;;;17.30;99.90;;;;;;4962768;28;20042;-85
2022/09/06 06:29:29;;;;;;;8.05;7.25;;;17.30;99.90;;;;;;4960164;28;20142;-85
2022/09/06 06:31:55;;;;;;;13.07;7.43;;;17.30;99.90;;;;;;4976110;28;20058;-85
2022/09/06 06:34:20;;;;;;;11.57;8.05;;;17.30;99.90;;;;;;4977637;28;20046;-85
2022/09/06 06:36:46;;;;;;;9.65;7.80;;;17.30;99.90;;;;;;4959766;28;20042;-86
2022/09/06 06:39:12;;;;;;;9.45;7.55;;;17.40;99.90;;;;;;4975496;28;20046;-85
2022/09/06 06:41:38;;;;;;;8.50;7.63;;;17.40;99.90;;;;;;4969103;28;20053;-85
2022/09/06 06:44:05;;;;;;;9.23;7.32;;;17.40;99.90;;;;;;4977818;28;20422;-86
2022/09/06 06:46:33;;;;;;;9.05;7.35;;;17.40;99.90;;;;;;4975405;28;20046;-85
2022/09/06 06:48:59;;;;;;;9.07;7.95;;;17.50;99.90;;;;;;4976367;28;20082;-86
2022/09/06 06:51:27;;;;;;;9.32;7.68;;;17.50;99.90;;;;;;4976341;28;20085;-85
2022/09/06 06:53:55;;;;;;;10.02;7.65;;;17.50;99.90;;;;;;4976719;28;20054;-85
2022/09/06 06:56:33;;;;;;;10.23;9.15;;;17.50;99.90;;;;;;4974286;28;20375;-85
2022/09/06 06:59:02;;;;;;;12.30;8.80;;;17.60;99.90;;;;;;4973575;28;20050;-85
2022/09/06 07:01:30;;;;;;;11.27;8.68;;;17.60;99.90;;;;;;4976659;28;20181;-85
2022/09/06 07:03:57;;;;;;;10.90;8.30;;;17.50;99.90;;;;;;4977212;28;20059;-85
2022/09/06 07:06:23;;;;;;;9.20;8.30;;;17.60;99.90;;;;;;4940549;28;20360;-85
2022/09/06 07:08:49;;;;;;;12.25;8.18;;;17.60;99.90;;;;;;4957946;29;20071;-84
2022/09/06 07:11:17;;;;;;;10.65;7.90;;;17.60;99.90;;;;;;4974499;28;20514;-85
2022/09/06 07:13:43;;;;;;;9.95;8.38;;;17.60;99.90;;;;;;4976176;28;20122;-85
2022/09/06 07:16:18;;;;;;;13.52;8.45;;;17.60;99.90;;;;;;4975782;28;20538;-85
2022/09/06 07:18:44;;;;;;;9.43;8.45;;;17.50;99.90;;;;;;4975755;28;20108;-85
2022/09/06 07:21:11;;;;;;;12.85;8.95;;;17.50;99.90;;;;;;4973284;28;20132;-84
2022/09/06 07:23:37;;;;;;;11.32;7.97;;;17.50;99.90;;;;;;4976064;28;20499;-84
2022/09/06 07:26:03;;;;;;;10.02;8.80;;;17.50;99.90;;;;;;4975441;28;20402;-84
2022/09/06 07:28:30;;;;;;;9.80;8.90;;;17.50;99.90;;;;;;4982402;28;20046;-85
2022/09/06 07:30:56;;;;;;;10.88;7.93;;;17.50;99.90;;;;;;4995095;28;20050;-84
2022/09/06 07:33:22;;;;;;;12.70;8.27;;;17.50;99.90;;;;;;4975506;28;20113;-84
2022/09/06 07:35:56;;;;;;;9.05;8.15;;;17.60;99.90;;;;;;4974594;28;20043;-86
2022/09/06 07:38:21;;;;;;;8.68;7.78;;;17.70;99.90;;;;;;4975004;28;20050;-85
2022/09/06 07:40:54;;;;;;;9.25;8.38;;;17.80;99.90;;;;;;4970795;28;20399;-84
2022/09/06 07:43:20;;;;;;;11.57;8.27;;;17.90;99.90;;;;;;4958890;28;20371;-84
2022/09/06 07:45:46;;;;;;;14.75;8.40;;;17.90;99.90;;;;;;4974815;28;20053;-84
2022/09/06 07:48:12;;;;;;;17.98;10.80;;;18.00;99.90;;;;;;4972705;28;20122;-84
2022/09/06 07:50:37;;;;;;;12.15;9.07;;;18.10;99.90;;;;;;4973409;28;20133;-84
2022/09/06 07:53:08;;;;;;;13.60;8.68;;;18.20;99.90;;;;;;4976199;28;20051;-85
2022/09/06 07:55:34;;;;;;;12.07;9.10;;;18.30;99.90;;;;;;4974585;28;20051;-84
2022/09/06 07:57:59;;;;;;;13.63;8.55;;;18.30;99.90;;;;;;4975256;28;20050;-85
2022/09/06 08:00:26;;;;;;;9.45;8.65;;;18.50;99.90;;;;;;4975219;28;20564;-84
2022/09/06 08:02:51;;;;;;;11.88;8.57;;;18.60;99.90;;;;;;4973727;28;20506;-84
2022/09/06 08:05:17;;;;;;;12.77;8.57;;;18.70;99.90;;;;;;4974822;28;20054;-83
2022/09/06 08:07:43;;;;;;;9.43;8.45;;;18.80;99.90;;;;;;4973255;28;20046;-84
2022/09/06 08:10:09;;;;;;;12.63;8.63;;;18.90;99.90;;;;;;4973339;28;20058;-82
2022/09/06 08:12:35;;;;;;;9.95;8.52;;;18.90;99.90;;;;;;4975716;28;20038;-83
2022/09/06 08:15:01;;;;;;;10.15;8.02;;;19.10;99.90;;;;;;4973387;28;20533;-82
2022/09/06 08:17:27;;;;;;;11.45;8.23;;;19.10;99.90;;;;;;4972506;28;20047;-82
2022/09/06 08:19:53;;;;;;;10.65;9.18;;;19.20;99.90;;;;;;4973102;28;20070;-84
2022/09/06 08:22:19;;;;;;;10.95;8.55;;;19.20;99.90;;;;;;4973739;28;20130;-82
2022/09/06 08:24:44;;;;;;;12.93;8.50;;;19.30;99.90;;;;;;4974668;28;20055;-82
2022/09/06 08:27:10;;;;;;;11.80;9.35;;;19.30;99.90;;;;;;4975046;28;20055;-82
2022/09/06 08:29:37;;;;;;;12.38;8.80;;;19.40;99.90;;;;;;4975793;28;20091;-83
2022/09/06 08:32:03;;;;;;;13.50;9.02;;;19.50;99.90;;;;;;4956746;28;20070;-81
2022/09/06 08:34:32;;;;;;;11.68;9.13;;;19.50;99.90;;;;;;4973512;28;20082;-83
2022/09/06 08:36:58;;;;;;;10.20;8.55;;;19.50;99.90;;;;;;4973553;28;20446;-81
2022/09/06 08:39:24;;;;;;;10.75;8.15;;;19.60;99.90;;;;;;4973214;28;20051;-82
2022/09/06 08:42:01;;;;;;;16.88;9.10;;;19.70;99.90;;;;;;4974558;28;20043;-81
2022/09/06 08:44:38;;;;;;;17.23;9.65;;;19.80;99.90;;;;;;4974770;28;20113;-81
2022/09/06 08:47:07;;;;;;;17.73;9.32;;;19.90;99.90;;;;;;4974821;28;20470;-82
2022/09/06 08:49:43;;;;;;;11.50;8.63;;;19.80;99.90;;;;;;4973930;28;20097;-82
2022/09/06 08:52:17;;;;;;;8.65;7.78;;;19.90;99.90;;;;;;4972833;28;20050;-81
2022/09/06 08:55:04;;;;;;;10.32;8.75;;;19.90;99.90;;;;;;4957827;28;20057;-81
2022/09/06 08:57:54;;;;;;;10.90;8.25;;;20.00;99.90;;;;;;4957692;28;20046;-81
2022/09/06 09:00:21;;;;;;;10.35;8.07;;;20.20;99.90;;;;;;4973256;28;20490;-81
2022/09/06 09:03:11;;;;;;;15.73;7.88;;;20.30;99.90;;;;;;4973864;28;20073;-82
2022/09/06 09:05:39;;;;;;;14.52;8.30;;;20.60;99.90;;;;;;4968122;28;20070;-82
2022/09/06 09:08:14;;;;;;;10.43;7.70;;;20.70;99.90;;;;;;4957138;28;20189;-82
2022/09/06 09:10:41;;;;;;;8.35;7.45;;;20.80;99.90;;;;;;4973838;28;20406;-83
2022/09/06 09:13:14;;;;;;;9.75;8.27;;;21.00;99.90;;;;;;4973490;28;20043;-82
2022/09/06 09:15:40;;;;;;;11.63;8.33;;;21.10;99.90;;;;;;4973595;28;20050;-82
2022/09/06 09:18:06;;;;;;;9.30;8.40;;;21.20;99.90;;;;;;4956668;28;20049;-82
2022/09/06 09:20:32;;;;;;;9.25;7.63;;;21.30;99.90;;;;;;4952155;28;20065;-82
2022/09/06 09:22:58;;;;;;;10.25;7.75;;;21.40;99.90;;;;;;4957683;28;20394;-82
2022/09/06 09:25:24;;;;;;;9.52;7.15;;;21.50;99.90;;;;;;4972915;28;20062;-82
2022/09/06 09:27:57;;;;;;;8.15;6.78;;;21.60;99.90;;;;;;4970900;28;20043;-83
2022/09/06 09:30:25;;;;;;;8.52;6.90;;;21.70;99.90;;;;;;4975619;28;20496;-81
2022/09/06 09:32:51;;;;;;;9.27;7.03;;;21.70;99.90;;;;;;4987990;28;20043;-84
2022/09/06 09:35:32;;;;;;;9.45;7.13;;;21.80;99.90;;;;;;4971874;28;20043;-84
2022/09/06 09:38:06;;;;;;;8.55;7.40;;;21.90;99.90;;;;;;4973144;28;20042;-83
2022/09/06 09:40:40;;;;;;;12.85;7.22;;;22.00;99.90;;;;;;4973402;28;20050;-84
2022/09/06 09:43:23;;;;;;;7.75;6.93;;;22.10;99.90;;;;;;4972477;28;20129;-82
2022/09/06 09:46:12;;;;;;;12.15;7.28;;;22.20;99.90;;;;;;4976963;28;20046;-83
2022/09/06 09:48:40;;;;;;;10.82;7.20;;;22.30;99.90;;;;;;4979065;28;20046;-82
2022/09/06 09:51:45;;;;;;;6.50;5.65;;;22.30;99.90;;;;;;4980292;28;20101;-81
2022/09/06 09:54:13;;;;;;;11.18;6.45;;;22.40;99.90;;;;;;4968700;28;20058;-81
2022/09/06 09:56:53;;;;;;;11.32;6.68;;;22.50;99.90;;;;;;4977284;28;20130;-81
2022/09/06 09:59:40;;;;;;;13.77;7.18;;;22.60;99.90;;;;;;4960691;28;20081;-82
2022/09/06 10:02:30;;;;;;;8.95;6.07;;;22.60;99.90;;;;;;4959619;29;20050;-82
2022/09/06 10:05:03;;;;;;;8.60;7.30;;;22.70;99.90;;;;;;4978527;28;20047;-83
2022/09/06 10:07:32;;;;;;;17.30;6.45;;;22.80;99.90;;;;;;4979107;28;20082;-83
2022/09/06 10:10:05;;;;;;;14.23;7.47;;;22.80;99.90;;;;;;4977615;28;20097;-82
2022/09/06 10:12:34;;;;;;;9.97;4.57;;;23.00;99.90;;;;;;4979536;28;20485;-81
2022/09/06 10:15:01;;;;;;;8.25;4.32;;;23.00;99.90;;;;;;4978961;28;20318;-83
2022/09/06 10:17:30;;;;;;;10.32;4.10;;;23.20;99.90;;;;;;4978696;28;20050;-83
2022/09/06 10:20:00;;;;;;;5.20;4.32;;;23.30;99.90;;;;;;4978814;28;20047;-82
2022/09/06 10:23:03;;;;;;;9.85;4.13;;;23.50;99.90;;;;;;4979433;28;20161;-82
2022/09/06 10:25:38;;;;;;;5.03;4.22;;;23.60;99.90;;;;;;4978566;28;20514;-82
2022/09/06 10:28:30;;;;;;;6.03;4.70;;;23.70;99.90;;;;;;4963417;28;20449;-81
2022/09/06 10:31:11;;;;;;;6.70;3.50;;;23.80;99.90;;;;;;4982495;28;20081;-82
2022/09/06 10:34:11;;;;;;;4.65;3.70;;;23.80;99.90;;;;;;4982639;28;20109;-82
2022/09/06 10:36:43;;;;;;;4.45;3.60;;;23.90;99.90;;;;;;4969161;28;20042;-81
2022/09/06 10:39:48;;;;;;;4.43;3.78;;;24.00;99.90;;;;;;4979402;28;20494;-83
2022/09/06 10:42:13;;;;;;;10.18;4.85;;;24.10;99.90;;;;;;4966133;28;20057;-84
2022/09/06 10:44:42;;;;;;;4.72;3.92;;;24.10;99.90;;;;;;4961934;28;20409;-85
2022/09/06 10:47:11;;;;;;;6.75;3.60;;;24.20;99.90;;;;;;4978939;28;20130;-85
2022/09/06 10:49:38;;;;;;;6.72;3.67;;;24.30;99.90;;;;;;4977871;28;20047;-87
2022/09/06 10:52:10;;;;;;;4.60;3.70;;;24.30;99.90;;;;;;4976395;28;20051;-84
2022/09/06 10:54:39;;;;;;;3.92;3.53;;;24.40;99.90;;;;;;4977066;28;20047;-82
2022/09/06 10:57:20;;;;;;;4.25;3.63;;;24.50;99.90;;;;;;4976359;28;20078;-83
2022/09/06 10:59:54;;;;;;;3.60;2.75;;;24.60;99.90;;;;;;4976791;28;20049;-83
2022/09/06 11:02:41;;;;;;;8.73;3.13;;;24.70;99.90;;;;;;4976658;28;20049;-82
2022/09/06 11:05:31;;;;;;;8.07;3.03;;;24.70;99.90;;;;;;4976496;28;20047;-83
2022/09/06 11:08:03;;;;;;;9.35;3.35;;;24.80;99.90;;;;;;4974308;28;20055;-82
2022/09/06 11:10:36;;;;;;;12.38;3.38;;;24.90;99.90;;;;;;4977259;28;20053;-81
2022/09/06 11:13:16;;;;;;;3.55;2.50;;;24.90;99.90;;;;;;4974879;28;20467;-80
2022/09/06 11:15:57;;;;;;;4.78;2.22;;;25.00;99.90;;;;;;4975895;28;20093;-81
2022/09/06 11:18:41;;;;;;;2.90;2.30;;;25.00;99.90;;;;;;4975357;28;20066;-81
2022/09/06 11:21:19;;;;;;;3.13;2.65;;;25.10;99.90;;;;;;4974463;28;20495;-79
2022/09/06 11:23:59;;;;;;;5.68;2.80;;;25.10;99.90;;;;;;4973915;28;20043;-81
2022/09/06 11:26:35;;;;;;;4.35;2.85;;;25.10;99.90;;;;;;4975510;28;20121;-81
2022/09/06 11:29:16;;;;;;;8.65;2.90;;;25.20;99.90;;;;;;4976736;28;20042;-81
2022/09/06 11:31:51;;;;;;;5.97;2.50;;;25.30;99.90;;;;;;4976150;28;20047;-80
2022/09/06 11:34:36;;;;;;;3.47;2.72;;;25.30;99.90;;;;;;4958497;28;20058;-81
2022/09/06 11:37:03;;;;;;;;;;;25.30;99.80;;;;;;4958665;28;20050;-81
2022/09/06 11:39:39;;;;;;;5.32;2.33;;;25.40;99.90;;;;;;4975944;28;19929;-81
2022/09/06 11:42:28;;;;;;;3.72;2.20;;;25.40;99.90;;;;;;4966247;28;20538;-81
2022/09/06 11:44:57;;;;;;;7.65;2.30;;;25.40;99.30;;;;;;4974600;28;20050;-81
2022/09/06 11:47:50;;;;;;;6.07;2.80;;;25.50;98.80;;;;;;4974389;28;20047;-81
2022/09/06 11:50:19;;;;;;;3.25;2.17;;;25.60;98.60;;;;;;4971368;28;20054;-81
2022/09/06 11:52:58;;;;;;;5.20;2.30;;;25.60;98.20;;;;;;4976251;28;20109;-80
2022/09/06 11:55:29;;;;;;;4.50;2.50;;;25.70;97.90;;;;;;4974946;28;20126;-81
2022/09/06 11:57:58;;;;;;;2.85;1.65;;;25.70;97.60;;;;;;4976184;28;20043;-81
2022/09/06 12:00:26;;;;;;;4.57;2.03;;;25.80;97.30;;;;;;4974610;28;20105;-81
2022/09/06 12:02:52;;;;;;;5.40;2.17;;;25.80;97.30;;;;;;4975548;28;20089;-80
2022/09/06 12:05:21;;;;;;;3.13;2.33;;;25.90;97.50;;;;;;4975546;28;20066;-81
2022/09/06 12:08:21;;;;;;;4.80;2.20;;;26.00;96.60;;;;;;4976130;28;20043;-81
2022/09/06 12:11:19;;;;;;;3.00;1.90;;;26.00;96.10;;;;;;4974683;28;20118;-80
2022/09/06 12:13:44;;;;;;;5.40;2.40;;;26.10;96.20;;;;;;4973809;28;20610;-81
2022/09/06 12:16:12;;;;;;;5.03;2.22;;;26.10;95.80;;;;;;4974512;28;20059;-81
2022/09/06 12:18:46;;;;;;;5.05;2.25;;;26.00;95.50;;;;;;4975962;28;20113;-81
2022/09/06 12:21:38;;;;;;;3.25;2.25;;;26.00;95.50;;;;;;4961891;28;20057;-81
2022/09/06 12:24:32;;;;;;;3.13;2.10;;;26.00;95.80;;;;;;4962819;28;20062;-81
2022/09/06 12:27:11;;;;;;;12.38;2.15;;;26.10;96.20;;;;;;4974579;28;20058;-81
2022/09/06 12:29:37;;;;;;;8.63;2.80;;;26.20;96.60;;;;;;4971318;28;20061;-80
2022/09/06 12:32:04;;;;;;;5.55;2.63;;;26.30;96.00;;;;;;4972218;28;20046;-80
2022/09/06 12:34:34;;;;;;;8.90;3.33;;;26.30;95.90;;;;;;4974385;28;20054;-80
2022/09/06 12:37:06;;;;;;;4.90;2.88;;;26.40;95.90;;;;;;4972190;28;20435;-80
2022/09/06 12:39:33;;;;;;;7.00;3.63;;;26.40;95.60;;;;;;4967602;28;20190;-79
2022/09/06 12:42:10;;;;;;;5.15;3.35;;;26.40;96.00;;;;;;4974948;28;20054;-79
2022/09/06 12:44:49;;;;;;;4.50;2.78;;;26.40;95.70;;;;;;4974604;28;20047;-80
2022/09/06 12:47:36;;;;;;;3.92;2.97;;;26.40;95.90;;;;;;4973796;28;20053;-79
2022/09/06 12:50:17;;;;;;;4.95;3.08;;;26.50;96.30;;;;;;4974161;28;20538;-79
2022/09/06 12:52:46;;;;;;;7.03;3.28;;;26.50;96.10;;;;;;4973212;28;20061;-80
2022/09/06 12:55:37;;;;;;;7.78;2.95;;;26.50;95.90;;;;;;4975315;28;20410;-79
2022/09/06 12:58:05;;;;;;;4.55;2.55;;;26.60;95.50;;;;;;4958300;28;20043;-80
2022/09/06 13:00:52;;;;;;;5.20;2.80;;;26.70;95.50;;;;;;4954756;29;20054;-80
2022/09/06 13:03:29;;;;;;;4.25;2.78;;;26.80;95.50;;;;;;4971890;28;20426;-79
2022/09/06 13:05:56;;;;;;;4.63;2.70;;;26.70;95.40;;;;;;4973183;28;20398;-79
2022/09/06 13:08:58;;;;;;;6.05;2.00;;;26.70;95.40;;;;;;4957121;28;20130;-79
2022/09/06 13:11:33;;;;;;;4.28;2.10;;;26.80;94.80;;;;;;4880259;29;20101;-80
2022/09/06 13:14:00;;;;;;;2.25;1.30;;;26.90;94.90;;;;;;4968801;28;20062;-79
2022/09/06 13:16:41;;;;;;;2.83;1.55;;;27.00;94.60;;;;;;4978547;28;20053;-80
2022/09/06 13:19:13;;;;;;;4.10;1.60;;;27.10;93.50;;;;;;4973153;28;20053;-80
2022/09/06 13:21:41;;;;;;;2.50;1.52;;;27.10;93.00;;;;;;4972093;28;20055;-80
2022/09/06 13:24:24;;;;;;;4.68;2.10;;;27.00;93.10;;;;;;4974586;28;20058;-79
2022/09/06 13:26:50;;;;;;;5.63;1.92;;;26.90;92.90;;;;;;4972367;28;20039;-80
2022/09/06 13:29:16;;;;;;;4.43;1.90;;;26.80;93.20;;;;;;4977608;28;20030;-80
2022/09/06 13:31:47;;;;;;;3.97;1.98;;;26.80;93.40;;;;;;4974414;28;20406;-79
2022/09/06 13:34:22;;;;;;;6.53;2.03;;;26.80;93.70;;;;;;4955514;28;20404;-79
2022/09/06 13:36:51;;;;;;;4.18;2.20;;;26.90;93.50;;;;;;4973018;28;20447;-80
2022/09/06 13:39:36;;;;;;;4.35;1.88;;;27.00;93.50;;;;;;4957607;28;20086;-79
2022/09/06 13:42:22;;;;;;;4.75;2.03;;;27.00;93.40;;;;;;4972380;28;20043;-80
2022/09/06 13:44:48;;;;;;;3.78;1.55;;;27.10;93.00;;;;;;4974425;28;20053;-80
2022/09/06 13:47:14;;;;;;;2.60;1.80;;;27.20;93.50;;;;;;4972124;28;20050;-79
2022/09/06 13:49:40;;;;;;;3.97;1.77;;;27.20;92.90;;;;;;4973013;28;20041;-79
2022/09/06 13:52:06;;;;;;;5.45;1.58;;;27.30;92.30;;;;;;4972192;28;20042;-80
2022/09/06 13:54:33;;;;;;;4.60;1.70;;;27.40;92.00;;;;;;4972557;28;20048;-80
2022/09/06 13:57:00;;;;;;;3.70;1.70;;;27.50;91.70;;;;;;4972675;28;20043;-80
2022/09/06 13:59:27;;;;;;;5.30;1.83;;;27.50;91.30;;;;;;4952679;28;20125;-80
2022/09/06 14:02:12;;;;;;;5.63;1.60;;;27.60;91.40;;;;;;4970616;28;20081;-78
2022/09/06 14:04:39;;;;;;;4.45;1.60;;;27.60;91.40;;;;;;4971353;28;20047;-80
2022/09/06 14:07:04;;;;;;;8.15;1.58;;;27.60;91.40;;;;;;4973253;28;20455;-79
2022/09/06 14:09:30;;;;;;;1.95;1.23;;;27.60;91.40;;;;;;4973258;28;20081;-79
2022/09/06 14:11:56;;;;;;;3.08;1.50;;;27.70;91.10;;;;;;4972165;28;20051;-79
2022/09/06 14:14:23;;;;;;;4.60;1.60;;;27.80;91.10;;;;;;4974371;28;20097;-78
2022/09/06 14:16:49;;;;;;;3.03;1.70;;;27.90;90.40;;;;;;4972181;28;20039;-80
2022/09/06 14:19:15;;;;;;;4.72;1.33;;;27.90;90.40;;;;;;4971524;28;20450;-79
2022/09/06 14:21:42;;;;;;;4.60;1.42;;;27.90;90.20;;;;;;4972377;28;20050;-79
2022/09/06 14:24:07;;;;;;;7.10;1.35;;;27.80;89.80;;;;;;4972218;28;20070;-80
2022/09/06 14:26:35;;;;;;;5.78;1.48;;;27.70;89.00;;;;;;4973680;28;20411;-80
2022/09/06 14:29:01;;;;;;;4.32;1.27;;;27.60;87.80;;;;;;4972151;28;20050;-80
2022/09/06 14:31:28;;;;;;;4.35;1.40;;;27.60;89.20;;;;;;4971548;28;20050;-80
2022/09/06 14:33:55;;;;;;;7.07;1.13;;;27.60;89.60;;;;;;4976673;28;20063;-78
2022/09/06 14:36:25;;;;;;;3.92;1.38;;;27.60;90.00;;;;;;4974844;28;20051;-80
2022/09/06 14:38:51;;;;;;;6.57;1.63;;;27.50;90.10;;;;;;4975779;28;20058;-79
2022/09/06 14:41:18;;;;;;;3.13;1.23;;;27.60;90.10;;;;;;4976314;28;20043;-78
2022/09/06 14:43:49;;;;;;;2.30;1.05;;;27.50;89.40;;;;;;4974965;28;20054;-79
2022/09/06 14:46:16;;;;;;;1.92;1.20;;;27.50;88.70;;;;;;4977343;28;20038;-80
2022/09/06 14:48:44;;;;;;;3.58;1.40;;;27.50;89.00;;;;;;4975905;28;20112;-79
2022/09/06 14:51:21;;;;;;;2.80;1.38;;;27.50;89.50;;;;;;4975512;28;20051;-80
2022/09/06 14:53:52;;;;;;;2.75;1.02;;;27.40;87.70;;;;;;4976864;28;20128;-80
2022/09/06 14:56:19;;;;;;;4.00;1.30;;;27.40;88.70;;;;;;4957203;29;20050;-79
2022/09/06 14:58:45;;;;;;;1.88;1.00;;;27.30;87.20;;;;;;4973759;28;20049;-79
2022/09/06 15:01:13;;;;;;;7.07;1.50;;;27.30;88.10;;;;;;4978388;28;20055;-79
2022/09/06 15:03:41;;;;;;;1.85;1.38;;;27.30;88.80;;;;;;4976148;28;20054;-80
2022/09/06 15:06:09;;;;;;;3.25;1.30;;;27.30;88.80;;;;;;4975025;28;20049;-80
2022/09/06 15:08:35;;;;;;;3.08;1.40;;;27.40;88.30;;;;;;4975195;28;20133;-80
2022/09/06 15:11:01;;;;;;;3.40;1.20;;;27.40;87.20;;;;;;4977398;28;20082;-79
2022/09/06 15:13:27;;;;;;;6.82;1.10;;;27.50;87.10;;;;;;4975630;28;20078;-80
2022/09/06 15:15:54;;;;;;;2.90;1.50;;;27.50;86.70;;;;;;4976293;28;20050;-80
2022/09/06 15:18:20;;;;;;;6.15;2.15;;;27.50;87.10;;;;;;4976476;28;20039;-80
2022/09/06 15:20:46;;;;;;;2.55;1.20;;;27.50;87.60;;;;;;4976018;28;20398;-80
2022/09/06 15:23:12;;;;;;;4.82;1.65;;;27.50;87.80;;;;;;4975744;28;20491;-80
2022/09/06 15:25:52;;;;;;;4.10;1.30;;;27.40;87.00;;;;;;4974363;28;20090;-80
2022/09/06 15:28:19;;;;;;;2.65;1.30;;;27.40;86.10;;;;;;4976929;28;20066;-80
2022/09/06 15:30:45;;;;;;;2.58;1.63;;;27.30;86.60;;;;;;4974920;28;20047;-80
2022/09/06 15:33:13;;;;;;;3.22;1.33;;;27.20;87.00;;;;;;4975986;28;20487;-79
2022/09/06 15:35:42;;;;;;;4.80;1.92;;;27.20;87.60;;;;;;4975296;28;20086;-80
2022/09/06 15:38:10;;;;;;;3.50;1.48;;;27.10;87.60;;;;;;4976726;28;20447;-80
2022/09/06 15:40:37;;;;;;;3.88;1.67;;;27.00;88.00;;;;;;4973544;28;20055;-80
2022/09/06 15:43:03;;;;;;;4.60;1.73;;;27.00;88.00;;;;;;4976574;28;20074;-79
2022/09/06 15:45:29;;;;;;;2.90;1.70;;;27.00;88.10;;;;;;4974958;28;20541;-80
2022/09/06 15:47:55;;;;;;;3.45;1.40;;;26.90;88.40;;;;;;4975956;28;20133;-80
2022/09/06 15:50:22;;;;;;;6.80;1.85;;;26.90;88.20;;;;;;4974779;28;20074;-80
2022/09/06 15:52:48;;;;;;;2.20;1.15;;;27.00;87.80;;;;;;4976531;28;20070;-80
2022/09/06 15:57:58;;;;;;;;;;;27.10;87.90;;;;;;4975856;28;20108;-80
2022/09/06 16:00:24;;;;;;;6.15;1.80;;;27.00;88.80;;;;;;4957255;28;20404;-80
2022/09/06 16:02:50;;;;;;;4.60;1.70;;;27.00;88.80;;;;;;4974350;28;20134;-80
2022/09/06 16:05:16;;;;;;;5.43;1.50;;;27.10;88.90;;;;;;4974944;28;20047;-80
2022/09/06 16:07:43;;;;;;;5.20;1.63;;;27.00;89.40;;;;;;4957970;28;20047;-80
2022/09/06 16:10:11;;;;;;;5.75;1.60;;;27.00;89.40;;;;;;4974814;28;20062;-79
2022/09/06 16:12:40;;;;;;;7.07;1.98;;;27.00;89.60;;;;;;4976092;28;20098;-79
2022/09/06 16:15:06;;;;;;;2.72;1.80;;;27.10;90.20;;;;;;4974792;28;20062;-80
2022/09/06 16:17:32;;;;;;;4.20;1.60;;;27.00;90.50;;;;;;4958800;28;20043;-80
2022/09/06 16:19:59;;;;;;;3.25;1.60;;;27.00;90.80;;;;;;4973796;28;20053;-80
2022/09/06 16:22:25;;;;;;;4.43;1.67;;;27.00;90.80;;;;;;4973776;28;20050;-80
2022/09/06 16:24:51;;;;;;;4.93;2.00;;;27.10;91.30;;;;;;4973821;28;20059;-80
2022/09/06 16:27:17;;;;;;;4.22;2.30;;;27.00;91.20;;;;;;4974725;28;20043;-80
2022/09/06 16:29:43;;;;;;;7.05;1.80;;;27.00;91.00;;;;;;4971484;28;20129;-80
2022/09/06 16:32:10;;;;;;;26.85;2.47;;;27.00;91.10;;;;;;4958228;28;20087;-80
2022/09/06 16:34:39;;;;;;;4.43;2.10;;;26.80;91.30;;;;;;4975813;28;20051;-80
2022/09/06 16:37:07;;;;;;;9.68;2.95;;;26.70;91.50;;;;;;4973551;28;20054;-79
2022/09/06 16:39:34;;;;;;;5.32;2.25;;;26.70;91.90;;;;;;4975774;28;20052;-80
2022/09/06 16:42:00;;;;;;;7.60;2.00;;;26.50;92.40;;;;;;4974272;28;20047;-80
2022/09/06 16:44:26;;;;;;;4.00;1.83;;;26.40;92.90;;;;;;4973629;28;20047;-80
2022/09/06 16:46:54;;;;;;;3.97;2.10;;;26.30;93.10;;;;;;4975690;28;20042;-80
2022/09/06 16:49:21;;;;;;;2.85;2.10;;;26.20;93.40;;;;;;4975437;28;20126;-80
2022/09/06 16:51:48;;;;;;;3.55;2.08;;;26.10;93.80;;;;;;4957581;28;20050;-80
2022/09/06 16:54:14;;;;;;;6.65;2.40;;;26.00;94.40;;;;;;4975244;28;20089;-81
2022/09/06 16:56:41;;;;;;;7.85;2.20;;;25.90;94.90;;;;;;4972794;28;20482;-80
2022/09/06 16:59:09;;;;;;;6.75;2.20;;;25.80;95.20;;;;;;4975447;28;20058;-80
2022/09/06 17:01:36;;;;;;;5.88;2.60;;;25.70;95.60;;;;;;4974172;28;20130;-80
2022/09/06 17:04:04;;;;;;;7.93;2.20;;;25.60;96.00;;;;;;4974333;28;20046;-80
2022/09/06 17:06:31;;;;;;;5.65;2.40;;;25.50;96.40;;;;;;4975100;28;20479;-80
2022/09/06 17:08:58;;;;;;;6.20;2.47;;;25.40;96.80;;;;;;4974136;28;20130;-80
2022/09/06 17:11:24;;;;;;;5.78;2.50;;;25.40;97.10;;;;;;4956947;28;20426;-80
2022/09/06 17:13:52;;;;;;;9.50;2.28;;;25.30;97.30;;;;;;4957828;28;20047;-80
2022/09/06 17:19:04;;;;;;;4.00;2.40;;;25.10;98.20;;;;;;4973376;28;20054;-80
2022/09/06 17:21:30;;;;;;;7.13;2.78;;;25.10;98.60;;;;;;4974007;28;20046;-80
2022/09/06 17:24:01;;;;;;;4.70;2.58;;;25.00;99.10;;;;;;4974721;28;20049;-80
2022/09/06 17:26:28;;;;;;;4.53;2.60;;;24.90;99.20;;;;;;4973139;28;20435;-80
2022/09/06 17:28:55;;;;;;;6.35;2.53;;;24.90;99.60;;;;;;4974961;28;20053;-80
2022/09/06 17:31:22;;;;;;;5.20;2.55;;;24.80;99.90;;;;;;4975023;28;20047;-80
2022/09/06 17:33:48;;;;;;;10.30;3.42;;;24.70;99.90;;;;;;4974185;28;20117;-80
2022/09/06 17:36:17;;;;;;;13.20;3.00;;;24.70;99.90;;;;;;4973832;28;20046;-80
2022/09/06 17:38:44;;;;;;;6.68;2.40;;;24.60;99.90;;;;;;4973472;28;20055;-80
2022/09/06 17:41:18;;;;;;;5.03;2.95;;;24.50;99.90;;;;;;4974208;28;20442;-80
2022/09/06 17:43:44;;;;;;;5.70;2.83;;;24.40;99.90;;;;;;4973483;28;20137;-80
2022/09/06 17:46:10;;;;;;;9.70;2.75;;;24.30;99.90;;;;;;4973974;28;20110;-80
2022/09/06 17:48:36;;;;;;;3.90;2.50;;;24.20;99.90;;;;;;4974666;28;20445;-80
2022/09/06 17:51:06;;;;;;;11.50;2.20;;;24.10;99.90;;;;;;4957372;28;20043;-80
2022/09/06 17:53:33;;;;;;;3.97;2.10;;;24.10;99.90;;;;;;4972677;28;20051;-80
2022/09/06 17:56:11;;;;;;;6.05;2.50;;;23.90;99.90;;;;;;4974701;28;20598;-80
2022/09/06 17:58:37;;;;;;;5.75;2.78;;;23.90;99.90;;;;;;4974920;28;20131;-80
2022/09/06 18:01:04;;;;;;;3.70;2.25;;;23.80;99.90;;;;;;4973959;28;20043;-80
2022/09/06 18:03:31;;;;;;;4.43;2.40;;;23.70;99.90;;;;;;4974671;28;20053;-80
2022/09/06 18:06:06;;;;;;;7.47;2.42;;;23.60;99.90;;;;;;4973575;28;20051;-80
2022/09/06 18:08:35;;;;;;;6.38;2.40;;;23.50;99.90;;;;;;4976333;28;20129;-80
2022/09/06 18:11:13;;;;;;;11.18;2.60;;;23.40;99.90;;;;;;4978534;28;20398;-80
2022/09/06 18:13:41;;;;;;;8.05;2.70;;;23.20;99.90;;;;;;4977093;28;20517;-80
2022/09/06 18:16:07;;;;;;;4.97;2.55;;;23.10;99.90;;;;;;4976613;28;20438;-80